sensor_id;sensor_type;location;lat;lon;timestamp;temperature;humidity
15819;DHT22;8010;53.986;12.106;2023-06-04T00:00:37;8.50;99.90
15819;DHT22;8010;53.986;12.106;2023-06-04T00:03:02;8.50;99.90
15819;DHT22;8010;53.986;12.106;2023-06-04T00:05:28;8.30;99.90
15819;DHT22;8010;53.986;12.106;2023-06-04T00:07:53;8.20;99.90
15819;DHT22;8010;53.986;12.106;2023-06-04T00:10:19;8.20;99.90
15819;DHT22;8010;53.986;12.106;2023-06-04T00:12:45;8.10;99.90
15819;DHT22;8010;53.986;12.106;2023-06-04T00:15:10;8.10;99.90
15819;DHT22;8010;53.986;12.106;2023-06-04T00:17:36;8.00;99.90
15819;DHT22;8010;53.986;12.106;2023-06-04T00:20:02;7.90;99.90
15819;DHT22;8010;53.986;12.106;2023-06-04T00:22:27;7.90;99.90
15819;DHT22;8010;53.986;12.106;2023-06-04T00:24:53;7.80;99.90
15819;DHT22;8010;53.986;12.106;2023-06-04T00:27:18;7.70;99.90
15819;DHT22;8010;53.986;12.106;2023-06-04T00:29:44;7.60;99.90
15819;DHT22;8010;53.986;12.106;2023-06-04T00:32:10;7.60;99.90
15819;DHT22;8010;53.986;12.106;2023-06-04T00:34:35;7.60;99.90
15819;DHT22;8010;53.986;12.106;2023-06-04T00:37:01;7.60;99.90
15819;DHT22;8010;53.986;12.106;2023-06-04T00:39:27;7.50;99.90
15819;DHT22;8010;53.986;12.106;2023-06-04T00:41:52;7.50;99.90
15819;DHT22;8010;53.986;12.106;2023-06-04T00:44:18;7.40;99.90
15819;DHT22;8010;53.986;12.106;2023-06-04T00:46:47;7.40;99.90
15819;DHT22;8010;53.986;12.106;2023-06-04T00:49:12;7.40;99.90
15819;DHT22;8010;53.986;12.106;2023-06-04T00:51:38;7.30;99.90
15819;DHT22;8010;53.986;12.106;2023-06-04T00:54:07;7.40;99.90
15819;DHT22;8010;53.986;12.106;2023-06-04T00:56:37;7.30;99.90
15819;DHT22;8010;53.986;12.106;2023-06-04T00:59:05;7.20;99.90
15819;DHT22;8010;53.986;12.106;2023-06-04T01:01:49;7.20;99.90
15819;DHT22;8010;53.986;12.106;2023-06-04T01:04:21;7.10;99.90
15819;DHT22;8010;53.986;12.106;2023-06-04T01:06:50;7.10;99.90
15819;DHT22;8010;53.986;12.106;2023-06-04T01:09:18;7.10;99.90
15819;DHT22;8010;53.986;12.106;2023-06-04T01:11:43;7.00;99.90
15819;DHT22;8010;53.986;12.106;2023-06-04T01:14:09;6.90;99.90
15819;DHT22;8010;53.986;12.106;2023-06-04T01:16:58;6.90;99.90
15819;DHT22;8010;53.986;12.106;2023-06-04T01:20:13;6.80;99.90
15819;DHT22;8010;53.986;12.106;2023-06-04T01:25:32;6.80;99.90
15819;DHT22;8010;53.986;12.106;2023-06-04T01:27:58;6.80;99.90
15819;DHT22;8010;53.986;12.106;2023-06-04T01:30:29;6.80;99.90
15819;DHT22;8010;53.986;12.106;2023-06-04T01:32:56;6.80;99.90
15819;DHT22;8010;53.986;12.106;2023-06-04T01:35:22;6.70;99.90
15819;DHT22;8010;53.986;12.106;2023-06-04T01:37:48;6.70;99.90
15819;DHT22;8010;53.986;12.106;2023-06-04T01:40:14;6.70;99.90
15819;DHT22;8010;53.986;12.106;2023-06-04T01:42:41;6.70;99.90
15819;DHT22;8010;53.986;12.106;2023-06-04T01:45:07;6.70;99.90
15819;DHT22;8010;53.986;12.106;2023-06-04T01:47:33;6.70;99.90
15819;DHT22;8010;53.986;12.106;2023-06-04T01:50:04;6.60;99.90
15819;DHT22;8010;53.986;12.106;2023-06-04T01:52:30;6.60;99.90
15819;DHT22;8010;53.986;12.106;2023-06-04T01:54:56;6.60;99.90
15819;DHT22;8010;53.986;12.106;2023-06-04T01:57:22;6.60;99.90
15819;DHT22;8010;53.986;12.106;2023-06-04T01:59:48;6.60;99.90
15819;DHT22;8010;53.986;12.106;2023-06-04T02:02:14;6.50;99.90
15819;DHT22;8010;53.986;12.106;2023-06-04T02:04:40;6.50;99.90
15819;DHT22;8010;53.986;12.106;2023-06-04T02:07:11;6.50;99.90
15819;DHT22;8010;53.986;12.106;2023-06-04T02:09:43;6.50;99.90
15819;DHT22;8010;53.986;12.106;2023-06-04T02:12:08;6.40;99.90
15819;DHT22;8010;53.986;12.106;2023-06-04T02:14:34;6.40;99.90
15819;DHT22;8010;53.986;12.106;2023-06-04T02:16:59;6.30;99.90
15819;DHT22;8010;53.986;12.106;2023-06-04T02:19:25;6.30;99.90
15819;DHT22;8010;53.986;12.106;2023-06-04T02:21:53;6.30;99.90
15819;DHT22;8010;53.986;12.106;2023-06-04T02:24:19;6.30;99.90
15819;DHT22;8010;53.986;12.106;2023-06-04T02:26:45;6.20;99.90
15819;DHT22;8010;53.986;12.106;2023-06-04T02:29:10;6.20;99.90
15819;DHT22;8010;53.986;12.106;2023-06-04T02:31:36;6.20;99.90
15819;DHT22;8010;53.986;12.106;2023-06-04T02:34:02;6.20;99.90
15819;DHT22;8010;53.986;12.106;2023-06-04T02:36:29;6.20;99.90
15819;DHT22;8010;53.986;12.106;2023-06-04T02:38:54;6.20;99.90
15819;DHT22;8010;53.986;12.106;2023-06-04T02:41:21;6.20;99.90
15819;DHT22;8010;53.986;12.106;2023-06-04T02:43:46;6.20;99.90
15819;DHT22;8010;53.986;12.106;2023-06-04T02:46:12;6.10;99.90
15819;DHT22;8010;53.986;12.106;2023-06-04T02:48:37;6.10;99.90
15819;DHT22;8010;53.986;12.106;2023-06-04T02:51:03;6.10;99.90
15819;DHT22;8010;53.986;12.106;2023-06-04T02:53:30;6.00;99.90
15819;DHT22;8010;53.986;12.106;2023-06-04T02:55:55;6.00;99.90
15819;DHT22;8010;53.986;12.106;2023-06-04T02:58:21;6.00;99.90
15819;DHT22;8010;53.986;12.106;2023-06-04T03:00:52;6.00;99.90
15819;DHT22;8010;53.986;12.106;2023-06-04T03:03:17;6.00;99.90
15819;DHT22;8010;53.986;12.106;2023-06-04T03:05:43;5.90;99.90
15819;DHT22;8010;53.986;12.106;2023-06-04T03:08:08;5.90;99.90
15819;DHT22;8010;53.986;12.106;2023-06-04T03:10:34;5.90;99.90
15819;DHT22;8010;53.986;12.106;2023-06-04T03:12:59;5.90;99.90
15819;DHT22;8010;53.986;12.106;2023-06-04T03:15:25;6.00;99.90
15819;DHT22;8010;53.986;12.106;2023-06-04T03:17:50;6.00;99.90
15819;DHT22;8010;53.986;12.106;2023-06-04T03:20:16;5.90;99.90
15819;DHT22;8010;53.986;12.106;2023-06-04T03:22:42;5.90;99.90
15819;DHT22;8010;53.986;12.106;2023-06-04T03:25:08;5.90;99.90
15819;DHT22;8010;53.986;12.106;2023-06-04T03:27:34;5.90;99.90
15819;DHT22;8010;53.986;12.106;2023-06-04T03:29:59;6.00;99.90
15819;DHT22;8010;53.986;12.106;2023-06-04T03:32:25;6.00;99.90
15819;DHT22;8010;53.986;12.106;2023-06-04T03:34:51;6.00;99.90
15819;DHT22;8010;53.986;12.106;2023-06-04T03:37:17;6.00;99.90
15819;DHT22;8010;53.986;12.106;2023-06-04T03:39:42;6.00;99.90
15819;DHT22;8010;53.986;12.106;2023-06-04T03:42:08;6.00;99.90
15819;DHT22;8010;53.986;12.106;2023-06-04T03:44:34;6.00;99.90
15819;DHT22;8010;53.986;12.106;2023-06-04T03:46:59;6.10;99.90
15819;DHT22;8010;53.986;12.106;2023-06-04T03:49:25;6.10;99.90
15819;DHT22;8010;53.986;12.106;2023-06-04T03:51:51;6.10;99.90
15819;DHT22;8010;53.986;12.106;2023-06-04T03:54:16;6.20;99.90
15819;DHT22;8010;53.986;12.106;2023-06-04T03:56:43;6.20;99.90
15819;DHT22;8010;53.986;12.106;2023-06-04T03:59:09;6.30;99.90
15819;DHT22;8010;53.986;12.106;2023-06-04T04:01:34;6.30;99.90
15819;DHT22;8010;53.986;12.106;2023-06-04T04:04:00;6.40;99.90
15819;DHT22;8010;53.986;12.106;2023-06-04T04:06:25;6.40;99.90
15819;DHT22;8010;53.986;12.106;2023-06-04T04:08:51;6.50;99.90
15819;DHT22;8010;53.986;12.106;2023-06-04T04:11:16;6.60;99.90
15819;DHT22;8010;53.986;12.106;2023-06-04T04:13:44;6.70;99.90
15819;DHT22;8010;53.986;12.106;2023-06-04T04:16:10;6.80;99.90
15819;DHT22;8010;53.986;12.106;2023-06-04T04:18:36;6.80;99.90
15819;DHT22;8010;53.986;12.106;2023-06-04T04:21:03;6.90;99.90
15819;DHT22;8010;53.986;12.106;2023-06-04T04:23:30;6.90;99.90
15819;DHT22;8010;53.986;12.106;2023-06-04T04:25:58;7.00;99.90
15819;DHT22;8010;53.986;12.106;2023-06-04T04:28:24;7.10;99.90
15819;DHT22;8010;53.986;12.106;2023-06-04T04:30:49;7.10;99.90
15819;DHT22;8010;53.986;12.106;2023-06-04T04:33:15;7.20;99.90
15819;DHT22;8010;53.986;12.106;2023-06-04T04:35:42;7.30;99.90
15819;DHT22;8010;53.986;12.106;2023-06-04T04:38:08;7.40;99.90
15819;DHT22;8010;53.986;12.106;2023-06-04T04:40:33;7.50;99.90
15819;DHT22;8010;53.986;12.106;2023-06-04T04:42:59;7.60;99.90
15819;DHT22;8010;53.986;12.106;2023-06-04T04:45:24;7.70;99.90
15819;DHT22;8010;53.986;12.106;2023-06-04T04:47:50;7.80;99.90
15819;DHT22;8010;53.986;12.106;2023-06-04T04:50:18;7.90;99.90
15819;DHT22;8010;53.986;12.106;2023-06-04T04:52:44;8.00;99.90
15819;DHT22;8010;53.986;12.106;2023-06-04T04:55:10;8.10;99.90
15819;DHT22;8010;53.986;12.106;2023-06-04T04:57:37;8.20;99.90
15819;DHT22;8010;53.986;12.106;2023-06-04T05:00:03;9.00;99.90
15819;DHT22;8010;53.986;12.106;2023-06-04T05:02:34;8.40;99.90
15819;DHT22;8010;53.986;12.106;2023-06-04T05:05:00;8.60;99.90
15819;DHT22;8010;53.986;12.106;2023-06-04T05:07:26;8.70;99.90
15819;DHT22;8010;53.986;12.106;2023-06-04T05:09:52;8.90;99.90
15819;DHT22;8010;53.986;12.106;2023-06-04T05:12:17;9.00;99.90
15819;DHT22;8010;53.986;12.106;2023-06-04T05:14:45;9.10;99.90
15819;DHT22;8010;53.986;12.106;2023-06-04T05:17:11;9.30;99.90
15819;DHT22;8010;53.986;12.106;2023-06-04T05:19:38;9.40;99.90
15819;DHT22;8010;53.986;12.106;2023-06-04T05:22:04;9.60;99.90
15819;DHT22;8010;53.986;12.106;2023-06-04T05:24:30;9.70;99.90
15819;DHT22;8010;53.986;12.106;2023-06-04T05:26:57;9.90;99.90
15819;DHT22;8010;53.986;12.106;2023-06-04T05:29:23;10.00;99.90
15819;DHT22;8010;53.986;12.106;2023-06-04T05:31:48;10.20;99.90
15819;DHT22;8010;53.986;12.106;2023-06-04T05:34:15;10.30;99.90
15819;DHT22;8010;53.986;12.106;2023-06-04T05:36:42;10.40;99.90
15819;DHT22;8010;53.986;12.106;2023-06-04T05:39:08;10.60;99.90
15819;DHT22;8010;53.986;12.106;2023-06-04T05:41:34;10.70;99.90
15819;DHT22;8010;53.986;12.106;2023-06-04T05:44:01;10.90;99.90
15819;DHT22;8010;53.986;12.106;2023-06-04T05:46:26;11.00;99.90
15819;DHT22;8010;53.986;12.106;2023-06-04T05:48:52;11.20;99.90
15819;DHT22;8010;53.986;12.106;2023-06-04T05:51:19;11.40;99.90
15819;DHT22;8010;53.986;12.106;2023-06-04T05:53:45;11.50;99.90
15819;DHT22;8010;53.986;12.106;2023-06-04T05:56:11;11.70;99.90
15819;DHT22;8010;53.986;12.106;2023-06-04T05:58:36;11.90;99.90
15819;DHT22;8010;53.986;12.106;2023-06-04T06:01:02;12.00;99.90
15819;DHT22;8010;53.986;12.106;2023-06-04T06:03:28;12.20;99.90
15819;DHT22;8010;53.986;12.106;2023-06-04T06:05:54;12.30;99.90
15819;DHT22;8010;53.986;12.106;2023-06-04T06:08:20;12.50;99.90
15819;DHT22;8010;53.986;12.106;2023-06-04T06:10:46;12.60;99.90
15819;DHT22;8010;53.986;12.106;2023-06-04T06:13:12;12.80;99.90
15819;DHT22;8010;53.986;12.106;2023-06-04T06:15:37;13.00;99.90
15819;DHT22;8010;53.986;12.106;2023-06-04T06:18:03;13.10;99.90
15819;DHT22;8010;53.986;12.106;2023-06-04T06:20:29;13.30;99.90
15819;DHT22;8010;53.986;12.106;2023-06-04T06:22:55;13.40;99.90
15819;DHT22;8010;53.986;12.106;2023-06-04T06:25:20;13.60;99.90
15819;DHT22;8010;53.986;12.106;2023-06-04T06:27:46;13.70;99.90
15819;DHT22;8010;53.986;12.106;2023-06-04T06:30:13;13.90;99.90
15819;DHT22;8010;53.986;12.106;2023-06-04T06:32:39;14.10;99.90
15819;DHT22;8010;53.986;12.106;2023-06-04T06:35:05;14.20;99.90
15819;DHT22;8010;53.986;12.106;2023-06-04T06:37:31;14.40;99.90
15819;DHT22;8010;53.986;12.106;2023-06-04T06:39:56;14.50;99.90
15819;DHT22;8010;53.986;12.106;2023-06-04T06:42:22;14.70;99.90
15819;DHT22;8010;53.986;12.106;2023-06-04T06:44:48;14.90;99.90
15819;DHT22;8010;53.986;12.106;2023-06-04T06:47:13;15.00;99.90
15819;DHT22;8010;53.986;12.106;2023-06-04T06:49:42;15.20;99.90
15819;DHT22;8010;53.986;12.106;2023-06-04T06:52:09;15.30;99.90
15819;DHT22;8010;53.986;12.106;2023-06-04T06:54:34;15.50;99.90
15819;DHT22;8010;53.986;12.106;2023-06-04T06:57:00;15.70;99.90
15819;DHT22;8010;53.986;12.106;2023-06-04T06:59:26;15.80;99.90
15819;DHT22;8010;53.986;12.106;2023-06-04T07:01:52;16.00;99.90
15819;DHT22;8010;53.986;12.106;2023-06-04T07:04:17;16.20;99.90
15819;DHT22;8010;53.986;12.106;2023-06-04T07:06:43;16.30;99.90
15819;DHT22;8010;53.986;12.106;2023-06-04T07:09:09;16.50;99.90
15819;DHT22;8010;53.986;12.106;2023-06-04T07:11:34;16.60;99.90
15819;DHT22;8010;53.986;12.106;2023-06-04T07:14:01;16.80;99.90
15819;DHT22;8010;53.986;12.106;2023-06-04T07:16:29;16.90;99.90
15819;DHT22;8010;53.986;12.106;2023-06-04T07:18:55;17.10;99.90
15819;DHT22;8010;53.986;12.106;2023-06-04T07:21:21;17.20;99.90
15819;DHT22;8010;53.986;12.106;2023-06-04T07:23:49;17.40;99.90
15819;DHT22;8010;53.986;12.106;2023-06-04T07:26:16;17.60;99.90
15819;DHT22;8010;53.986;12.106;2023-06-04T07:28:42;17.60;99.90
15819;DHT22;8010;53.986;12.106;2023-06-04T07:31:08;17.80;99.90
15819;DHT22;8010;53.986;12.106;2023-06-04T07:33:33;17.90;99.90
15819;DHT22;8010;53.986;12.106;2023-06-04T07:35:59;18.00;99.90
15819;DHT22;8010;53.986;12.106;2023-06-04T07:38:25;18.10;99.90
15819;DHT22;8010;53.986;12.106;2023-06-04T07:40:51;18.30;99.90
15819;DHT22;8010;53.986;12.106;2023-06-04T07:43:16;18.40;99.90
15819;DHT22;8010;53.986;12.106;2023-06-04T07:45:42;18.60;99.90
15819;DHT22;8010;53.986;12.106;2023-06-04T07:48:09;18.70;99.90
15819;DHT22;8010;53.986;12.106;2023-06-04T07:50:36;18.90;99.90
15819;DHT22;8010;53.986;12.106;2023-06-04T07:53:01;19.00;99.90
15819;DHT22;8010;53.986;12.106;2023-06-04T07:55:27;19.10;99.90
15819;DHT22;8010;53.986;12.106;2023-06-04T07:57:52;19.10;99.90
15819;DHT22;8010;53.986;12.106;2023-06-04T08:00:18;19.30;99.90
15819;DHT22;8010;53.986;12.106;2023-06-04T08:02:43;19.50;99.90
15819;DHT22;8010;53.986;12.106;2023-06-04T08:05:09;19.70;99.90
15819;DHT22;8010;53.986;12.106;2023-06-04T08:07:35;19.90;99.90
15819;DHT22;8010;53.986;12.106;2023-06-04T08:10:00;19.90;99.90
15819;DHT22;8010;53.986;12.106;2023-06-04T08:12:26;20.00;99.90
15819;DHT22;8010;53.986;12.106;2023-06-04T08:14:51;20.10;99.90
15819;DHT22;8010;53.986;12.106;2023-06-04T08:17:20;20.20;99.90
15819;DHT22;8010;53.986;12.106;2023-06-04T08:19:45;20.50;99.90
15819;DHT22;8010;53.986;12.106;2023-06-04T08:22:11;20.60;99.90
15819;DHT22;8010;53.986;12.106;2023-06-04T08:24:37;20.70;99.90
15819;DHT22;8010;53.986;12.106;2023-06-04T08:27:02;20.80;99.90
15819;DHT22;8010;53.986;12.106;2023-06-04T08:29:28;21.00;99.90
15819;DHT22;8010;53.986;12.106;2023-06-04T08:31:53;21.10;99.90
15819;DHT22;8010;53.986;12.106;2023-06-04T08:34:19;21.20;99.90
15819;DHT22;8010;53.986;12.106;2023-06-04T08:36:45;21.30;99.90
15819;DHT22;8010;53.986;12.106;2023-06-04T08:39:11;21.40;99.90
15819;DHT22;8010;53.986;12.106;2023-06-04T08:41:42;21.50;99.90
15819;DHT22;8010;53.986;12.106;2023-06-04T08:44:09;21.50;99.90
15819;DHT22;8010;53.986;12.106;2023-06-04T08:46:38;21.60;99.90
15819;DHT22;8010;53.986;12.106;2023-06-04T08:49:07;21.70;99.90
15819;DHT22;8010;53.986;12.106;2023-06-04T08:51:36;22.00;99.90
15819;DHT22;8010;53.986;12.106;2023-06-04T08:54:06;22.10;99.90
15819;DHT22;8010;53.986;12.106;2023-06-04T08:56:33;22.90;99.90
15819;DHT22;8010;53.986;12.106;2023-06-04T08:59:03;22.10;99.90
15819;DHT22;8010;53.986;12.106;2023-06-04T09:01:31;22.10;99.90
15819;DHT22;8010;53.986;12.106;2023-06-04T09:03:58;22.20;99.90
15819;DHT22;8010;53.986;12.106;2023-06-04T09:06:27;22.40;99.90
15819;DHT22;8010;53.986;12.106;2023-06-04T09:08:56;22.70;99.90
15819;DHT22;8010;53.986;12.106;2023-06-04T09:11:27;23.00;99.90
15819;DHT22;8010;53.986;12.106;2023-06-04T09:13:59;23.10;99.90
15819;DHT22;8010;53.986;12.106;2023-06-04T09:16:26;23.30;99.90
15819;DHT22;8010;53.986;12.106;2023-06-04T09:18:52;23.30;99.90
15819;DHT22;8010;53.986;12.106;2023-06-04T09:21:18;23.30;99.90
15819;DHT22;8010;53.986;12.106;2023-06-04T09:23:46;23.10;99.90
15819;DHT22;8010;53.986;12.106;2023-06-04T09:26:12;23.40;99.90
15819;DHT22;8010;53.986;12.106;2023-06-04T09:28:42;23.40;99.90
15819;DHT22;8010;53.986;12.106;2023-06-04T09:31:17;23.50;99.90
15819;DHT22;8010;53.986;12.106;2023-06-04T09:33:48;23.70;99.90
15819;DHT22;8010;53.986;12.106;2023-06-04T09:36:33;24.00;99.90
15819;DHT22;8010;53.986;12.106;2023-06-04T09:38:58;24.20;99.90
15819;DHT22;8010;53.986;12.106;2023-06-04T09:41:25;24.30;99.90
15819;DHT22;8010;53.986;12.106;2023-06-04T09:43:59;24.30;99.90
15819;DHT22;8010;53.986;12.106;2023-06-04T09:46:28;24.40;99.90
15819;DHT22;8010;53.986;12.106;2023-06-04T09:49:00;24.40;99.90
15819;DHT22;8010;53.986;12.106;2023-06-04T09:51:26;24.60;99.90
15819;DHT22;8010;53.986;12.106;2023-06-04T09:53:55;24.80;99.90
15819;DHT22;8010;53.986;12.106;2023-06-04T09:56:22;24.60;99.90
15819;DHT22;8010;53.986;12.106;2023-06-04T09:58:54;24.20;99.90
15819;DHT22;8010;53.986;12.106;2023-06-04T10:01:20;23.60;99.90
15819;DHT22;8010;53.986;12.106;2023-06-04T10:03:47;23.10;99.90
15819;DHT22;8010;53.986;12.106;2023-06-04T10:06:15;22.70;99.90
15819;DHT22;8010;53.986;12.106;2023-06-04T10:08:45;22.40;99.90
15819;DHT22;8010;53.986;12.106;2023-06-04T10:11:12;22.30;99.90
15819;DHT22;8010;53.986;12.106;2023-06-04T10:16:13;23.10;99.90
15819;DHT22;8010;53.986;12.106;2023-06-04T10:18:39;23.60;99.90
15819;DHT22;8010;53.986;12.106;2023-06-04T10:21:06;24.00;99.90
15819;DHT22;8010;53.986;12.106;2023-06-04T10:23:31;24.30;99.90
15819;DHT22;8010;53.986;12.106;2023-06-04T10:25:57;24.50;99.90
15819;DHT22;8010;53.986;12.106;2023-06-04T10:28:24;24.70;99.90
15819;DHT22;8010;53.986;12.106;2023-06-04T10:30:50;24.50;99.90
15819;DHT22;8010;53.986;12.106;2023-06-04T10:33:22;24.20;99.90
15819;DHT22;8010;53.986;12.106;2023-06-04T10:35:50;24.10;99.90
15819;DHT22;8010;53.986;12.106;2023-06-04T10:38:16;23.60;99.90
15819;DHT22;8010;53.986;12.106;2023-06-04T10:40:44;23.30;99.90
15819;DHT22;8010;53.986;12.106;2023-06-04T10:43:11;22.90;99.90
15819;DHT22;8010;53.986;12.106;2023-06-04T10:45:37;22.50;99.90
15819;DHT22;8010;53.986;12.106;2023-06-04T10:48:08;22.20;99.90
15819;DHT22;8010;53.986;12.106;2023-06-04T10:50:35;22.00;99.90
15819;DHT22;8010;53.986;12.106;2023-06-04T10:53:01;22.00;99.90
15819;DHT22;8010;53.986;12.106;2023-06-04T10:55:31;22.00;99.90
15819;DHT22;8010;53.986;12.106;2023-06-04T10:58:01;22.00;99.90
15819;DHT22;8010;53.986;12.106;2023-06-04T11:00:37;22.40;99.90
15819;DHT22;8010;53.986;12.106;2023-06-04T11:03:05;22.90;99.90
15819;DHT22;8010;53.986;12.106;2023-06-04T11:05:45;23.30;99.90
15819;DHT22;8010;53.986;12.106;2023-06-04T11:08:12;23.80;99.90
15819;DHT22;8010;53.986;12.106;2023-06-04T11:10:41;24.30;99.90
15819;DHT22;8010;53.986;12.106;2023-06-04T11:13:07;24.80;99.90
15819;DHT22;8010;53.986;12.106;2023-06-04T11:15:46;25.00;99.90
15819;DHT22;8010;53.986;12.106;2023-06-04T11:18:23;25.30;99.90
15819;DHT22;8010;53.986;12.106;2023-06-04T11:20:58;25.30;99.90
15819;DHT22;8010;53.986;12.106;2023-06-04T11:23:23;25.40;99.90
15819;DHT22;8010;53.986;12.106;2023-06-04T11:25:52;25.60;99.90
15819;DHT22;8010;53.986;12.106;2023-06-04T11:28:18;25.90;99.90
15819;DHT22;8010;53.986;12.106;2023-06-04T11:30:55;25.80;99.90
15819;DHT22;8010;53.986;12.106;2023-06-04T11:33:21;25.40;99.90
15819;DHT22;8010;53.986;12.106;2023-06-04T11:35:46;25.50;99.90
15819;DHT22;8010;53.986;12.106;2023-06-04T11:38:12;25.50;99.90
15819;DHT22;8010;53.986;12.106;2023-06-04T11:40:37;25.70;99.90
15819;DHT22;8010;53.986;12.106;2023-06-04T11:43:03;25.80;99.90
15819;DHT22;8010;53.986;12.106;2023-06-04T11:45:28;25.70;99.90
15819;DHT22;8010;53.986;12.106;2023-06-04T11:47:57;25.60;99.90
15819;DHT22;8010;53.986;12.106;2023-06-04T11:50:27;25.90;99.90
15819;DHT22;8010;53.986;12.106;2023-06-04T11:52:53;26.10;99.90
15819;DHT22;8010;53.986;12.106;2023-06-04T11:55:19;26.10;99.90
15819;DHT22;8010;53.986;12.106;2023-06-04T11:57:49;26.30;99.90
15819;DHT22;8010;53.986;12.106;2023-06-04T12:00:16;26.20;99.90
15819;DHT22;8010;53.986;12.106;2023-06-04T12:02:52;26.00;99.90
15819;DHT22;8010;53.986;12.106;2023-06-04T12:05:18;26.20;99.90
15819;DHT22;8010;53.986;12.106;2023-06-04T12:07:45;26.10;99.90
15819;DHT22;8010;53.986;12.106;2023-06-04T12:10:11;26.10;99.90
15819;DHT22;8010;53.986;12.106;2023-06-04T12:12:37;26.10;99.90
15819;DHT22;8010;53.986;12.106;2023-06-04T12:15:03;26.10;99.90
15819;DHT22;8010;53.986;12.106;2023-06-04T12:17:31;26.00;99.90
15819;DHT22;8010;53.986;12.106;2023-06-04T12:19:56;26.00;99.90
15819;DHT22;8010;53.986;12.106;2023-06-04T12:22:24;26.10;99.90
15819;DHT22;8010;53.986;12.106;2023-06-04T12:24:54;26.10;99.90
15819;DHT22;8010;53.986;12.106;2023-06-04T12:27:25;26.20;99.90
15819;DHT22;8010;53.986;12.106;2023-06-04T12:29:57;26.30;99.90
15819;DHT22;8010;53.986;12.106;2023-06-04T12:32:23;26.30;99.90
15819;DHT22;8010;53.986;12.106;2023-06-04T12:34:49;26.30;99.90
15819;DHT22;8010;53.986;12.106;2023-06-04T12:37:14;26.30;99.90
15819;DHT22;8010;53.986;12.106;2023-06-04T12:39:40;26.40;99.90
15819;DHT22;8010;53.986;12.106;2023-06-04T12:42:06;26.20;99.90
15819;DHT22;8010;53.986;12.106;2023-06-04T12:44:37;26.20;99.90
15819;DHT22;8010;53.986;12.106;2023-06-04T12:47:03;26.30;99.90
15819;DHT22;8010;53.986;12.106;2023-06-04T12:49:29;26.40;99.90
15819;DHT22;8010;53.986;12.106;2023-06-04T12:51:54;26.60;99.90
15819;DHT22;8010;53.986;12.106;2023-06-04T12:54:20;26.50;99.90
15819;DHT22;8010;53.986;12.106;2023-06-04T12:56:45;26.50;99.90
15819;DHT22;8010;53.986;12.106;2023-06-04T12:59:11;26.30;99.90
15819;DHT22;8010;53.986;12.106;2023-06-04T13:01:37;26.10;99.90
15819;DHT22;8010;53.986;12.106;2023-06-04T13:04:06;26.10;99.90
15819;DHT22;8010;53.986;12.106;2023-06-04T13:06:33;26.10;99.90
15819;DHT22;8010;53.986;12.106;2023-06-04T13:08:59;26.10;99.90
15819;DHT22;8010;53.986;12.106;2023-06-04T13:11:25;26.20;99.90
15819;DHT22;8010;53.986;12.106;2023-06-04T13:13:51;26.40;99.90
15819;DHT22;8010;53.986;12.106;2023-06-04T13:16:16;26.50;99.90
15819;DHT22;8010;53.986;12.106;2023-06-04T13:18:42;26.30;99.90
15819;DHT22;8010;53.986;12.106;2023-06-04T13:21:07;26.40;99.90
15819;DHT22;8010;53.986;12.106;2023-06-04T13:23:33;26.50;99.90
15819;DHT22;8010;53.986;12.106;2023-06-04T13:25:58;26.80;99.90
15819;DHT22;8010;53.986;12.106;2023-06-04T13:28:24;26.80;99.90
15819;DHT22;8010;53.986;12.106;2023-06-04T13:30:49;26.80;99.90
15819;DHT22;8010;53.986;12.106;2023-06-04T13:33:15;26.90;99.90
15819;DHT22;8010;53.986;12.106;2023-06-04T13:35:41;27.00;99.90
15819;DHT22;8010;53.986;12.106;2023-06-04T13:38:07;27.00;99.90
15819;DHT22;8010;53.986;12.106;2023-06-04T13:40:36;27.10;99.90
15819;DHT22;8010;53.986;12.106;2023-06-04T13:43:02;27.10;99.90
15819;DHT22;8010;53.986;12.106;2023-06-04T13:45:28;27.10;99.90
15819;DHT22;8010;53.986;12.106;2023-06-04T13:47:53;27.00;99.90
15819;DHT22;8010;53.986;12.106;2023-06-04T13:50:19;27.00;99.90
15819;DHT22;8010;53.986;12.106;2023-06-04T13:52:45;26.80;99.90
15819;DHT22;8010;53.986;12.106;2023-06-04T13:55:12;27.00;99.90
15819;DHT22;8010;53.986;12.106;2023-06-04T13:57:38;27.00;99.90
15819;DHT22;8010;53.986;12.106;2023-06-04T14:00:06;27.00;99.90
15819;DHT22;8010;53.986;12.106;2023-06-04T14:02:32;26.70;99.90
15819;DHT22;8010;53.986;12.106;2023-06-04T14:04:58;26.70;99.90
15819;DHT22;8010;53.986;12.106;2023-06-04T14:07:23;26.80;99.90
15819;DHT22;8010;53.986;12.106;2023-06-04T14:09:49;27.00;99.90
15819;DHT22;8010;53.986;12.106;2023-06-04T14:12:20;27.10;99.90
15819;DHT22;8010;53.986;12.106;2023-06-04T14:14:45;27.30;99.90
15819;DHT22;8010;53.986;12.106;2023-06-04T14:17:11;27.10;99.90
15819;DHT22;8010;53.986;12.106;2023-06-04T14:19:39;27.20;99.90
15819;DHT22;8010;53.986;12.106;2023-06-04T14:22:04;27.10;99.90
15819;DHT22;8010;53.986;12.106;2023-06-04T14:24:30;26.90;99.90
15819;DHT22;8010;53.986;12.106;2023-06-04T14:26:56;27.00;99.90
15819;DHT22;8010;53.986;12.106;2023-06-04T14:29:21;26.90;99.90
15819;DHT22;8010;53.986;12.106;2023-06-04T14:31:47;27.00;99.90
15819;DHT22;8010;53.986;12.106;2023-06-04T14:34:12;26.60;99.90
15819;DHT22;8010;53.986;12.106;2023-06-04T14:36:38;26.30;99.90
15819;DHT22;8010;53.986;12.106;2023-06-04T14:39:03;26.30;99.90
15819;DHT22;8010;53.986;12.106;2023-06-04T14:41:29;26.40;99.90
15819;DHT22;8010;53.986;12.106;2023-06-04T14:43:55;26.40;99.90
15819;DHT22;8010;53.986;12.106;2023-06-04T14:46:21;26.40;99.90
15819;DHT22;8010;53.986;12.106;2023-06-04T14:48:46;26.20;99.90
15819;DHT22;8010;53.986;12.106;2023-06-04T14:51:12;26.30;99.90
15819;DHT22;8010;53.986;12.106;2023-06-04T14:53:38;27.00;99.90
15819;DHT22;8010;53.986;12.106;2023-06-04T14:56:05;26.30;99.90
15819;DHT22;8010;53.986;12.106;2023-06-04T14:58:30;26.40;99.90
15819;DHT22;8010;53.986;12.106;2023-06-04T15:00:56;26.60;99.90
15819;DHT22;8010;53.986;12.106;2023-06-04T15:03:25;26.50;99.90
15819;DHT22;8010;53.986;12.106;2023-06-04T15:05:51;26.60;99.90
15819;DHT22;8010;53.986;12.106;2023-06-04T15:08:16;26.70;99.90
15819;DHT22;8010;53.986;12.106;2023-06-04T15:10:42;26.80;99.90
15819;DHT22;8010;53.986;12.106;2023-06-04T15:13:08;27.00;99.90
15819;DHT22;8010;53.986;12.106;2023-06-04T15:15:33;26.70;99.90
15819;DHT22;8010;53.986;12.106;2023-06-04T15:17:59;26.80;99.90
15819;DHT22;8010;53.986;12.106;2023-06-04T15:20:24;26.80;99.90
15819;DHT22;8010;53.986;12.106;2023-06-04T15:22:52;27.00;99.90
15819;DHT22;8010;53.986;12.106;2023-06-04T15:25:18;26.90;99.90
15819;DHT22;8010;53.986;12.106;2023-06-04T15:27:44;26.80;99.90
15819;DHT22;8010;53.986;12.106;2023-06-04T15:30:09;26.60;99.80
15819;DHT22;8010;53.986;12.106;2023-06-04T15:32:35;26.40;99.90
15819;DHT22;8010;53.986;12.106;2023-06-04T15:35:00;26.20;99.90
15819;DHT22;8010;53.986;12.106;2023-06-04T15:37:27;26.60;99.90